sensor_id;sensor_type;location;lat;lon;timestamp;temperature;humidity
65245;DHT22;51846;48.692;2.382;2022-09-30T00:01:41;9.38;88.99
65245;DHT22;51846;48.692;2.382;2022-09-30T00:04:09;9.38;88.83
65245;DHT22;51846;48.692;2.382;2022-09-30T00:06:36;9.31;89.07
65245;DHT22;51846;48.692;2.382;2022-09-30T00:09:02;9.22;89.29
65245;DHT22;51846;48.692;2.382;2022-09-30T00:11:28;9.08;89.98
65245;DHT22;51846;48.692;2.382;2022-09-30T00:13:55;9.14;89.84
65245;DHT22;51846;48.692;2.382;2022-09-30T00:16:22;9.24;90.03
65245;DHT22;51846;48.692;2.382;2022-09-30T00:18:47;9.24;89.66
65245;DHT22;51846;48.692;2.382;2022-09-30T00:21:13;9.24;89.76
65245;DHT22;51846;48.692;2.382;2022-09-30T00:23:40;9.12;89.07
65245;DHT22;51846;48.692;2.382;2022-09-30T00:26:06;8.97;88.88
65245;DHT22;51846;48.692;2.382;2022-09-30T00:28:33;8.87;90.32
65245;DHT22;51846;48.692;2.382;2022-09-30T00:30:59;8.81;90.34
65245;DHT22;51846;48.692;2.382;2022-09-30T00:33:24;8.77;91.23
65245;DHT22;51846;48.692;2.382;2022-09-30T00:35:49;8.77;91.23
65245;DHT22;51846;48.692;2.382;2022-09-30T00:38:15;8.81;91.19
65245;DHT22;51846;48.692;2.382;2022-09-30T00:40:40;8.94;90.77
65245;DHT22;51846;48.692;2.382;2022-09-30T00:43:16;9.00;89.99
65245;DHT22;51846;48.692;2.382;2022-09-30T00:45:44;9.07;89.76
65245;DHT22;51846;48.692;2.382;2022-09-30T00:48:14;9.05;89.22
65245;DHT22;51846;48.692;2.382;2022-09-30T00:50:44;9.08;89.20
65245;DHT22;51846;48.692;2.382;2022-09-30T01:01:08;9.04;88.81
65245;DHT22;51846;48.692;2.382;2022-09-30T01:03:38;8.94;88.22
65245;DHT22;51846;48.692;2.382;2022-09-30T01:06:05;8.89;89.18
65245;DHT22;51846;48.692;2.382;2022-09-30T01:08:31;8.88;89.25
65245;DHT22;51846;48.692;2.382;2022-09-30T01:10:57;8.81;89.36
65245;DHT22;51846;48.692;2.382;2022-09-30T01:13:23;8.65;90.11
65245;DHT22;51846;48.692;2.382;2022-09-30T01:18:24;8.72;90.65
65245;DHT22;51846;48.692;2.382;2022-09-30T01:20:53;8.78;90.27
65245;DHT22;51846;48.692;2.382;2022-09-30T01:33:50;8.85;88.40
65245;DHT22;51846;48.692;2.382;2022-09-30T01:36:36;8.81;88.16
65245;DHT22;51846;48.692;2.382;2022-09-30T01:39:10;8.74;88.43
65245;DHT22;51846;48.692;2.382;2022-09-30T01:41:53;8.72;88.77
65245;DHT22;51846;48.692;2.382;2022-09-30T01:44:29;8.72;88.90
65245;DHT22;51846;48.692;2.382;2022-09-30T01:46:58;8.71;88.87
65245;DHT22;51846;48.692;2.382;2022-09-30T01:49:35;8.70;88.79
65245;DHT22;51846;48.692;2.382;2022-09-30T01:52:15;8.67;88.68
65245;DHT22;51846;48.692;2.382;2022-09-30T01:54:45;8.67;88.84
65245;DHT22;51846;48.692;2.382;2022-09-30T01:57:17;8.64;89.13
65245;DHT22;51846;48.692;2.382;2022-09-30T01:59:45;8.63;89.03
65245;DHT22;51846;48.692;2.382;2022-09-30T02:02:13;8.63;89.07
65245;DHT22;51846;48.692;2.382;2022-09-30T02:04:43;8.61;88.43
65245;DHT22;51846;48.692;2.382;2022-09-30T02:07:10;8.57;88.30
65245;DHT22;51846;48.692;2.382;2022-09-30T02:09:40;8.56;88.34
65245;DHT22;51846;48.692;2.382;2022-09-30T02:12:08;8.54;88.58
65245;DHT22;51846;48.692;2.382;2022-09-30T02:14:36;8.51;89.08
65245;DHT22;51846;48.692;2.382;2022-09-30T02:17:15;8.50;88.96
65245;DHT22;51846;48.692;2.382;2022-09-30T02:19:49;8.51;89.22
65245;DHT22;51846;48.692;2.382;2022-09-30T02:22:19;8.49;89.05
65245;DHT22;51846;48.692;2.382;2022-09-30T02:24:46;8.50;88.66
65245;DHT22;51846;48.692;2.382;2022-09-30T02:27:22;8.46;88.36
65245;DHT22;51846;48.692;2.382;2022-09-30T02:29:51;8.44;88.37
65245;DHT22;51846;48.692;2.382;2022-09-30T02:32:23;8.43;87.96
65245;DHT22;51846;48.692;2.382;2022-09-30T02:34:55;8.39;88.11
65245;DHT22;51846;48.692;2.382;2022-09-30T02:37:43;8.37;88.52
65245;DHT22;51846;48.692;2.382;2022-09-30T02:40:09;8.37;87.99
65245;DHT22;51846;48.692;2.382;2022-09-30T02:42:35;8.29;87.85
65245;DHT22;51846;48.692;2.382;2022-09-30T02:45:02;8.23;88.19
65245;DHT22;51846;48.692;2.382;2022-09-30T02:50:05;8.17;88.11
65245;DHT22;51846;48.692;2.382;2022-09-30T03:00:00;8.13;89.39
65245;DHT22;51846;48.692;2.382;2022-09-30T03:02:25;8.12;89.34
65245;DHT22;51846;48.692;2.382;2022-09-30T03:04:50;8.13;89.30
65245;DHT22;51846;48.692;2.382;2022-09-30T03:07:16;8.12;89.34
65245;DHT22;51846;48.692;2.382;2022-09-30T03:09:41;8.13;89.41
65245;DHT22;51846;48.692;2.382;2022-09-30T03:12:09;8.09;89.84
65245;DHT22;51846;48.692;2.382;2022-09-30T03:14:49;8.10;89.46
65245;DHT22;51846;48.692;2.382;2022-09-30T03:20:08;8.05;89.03
65245;DHT22;51846;48.692;2.382;2022-09-30T03:25:47;8.09;88.88
65245;DHT22;51846;48.692;2.382;2022-09-30T03:30:46;8.03;88.72
65245;DHT22;51846;48.692;2.382;2022-09-30T03:33:21;8.02;88.87
65245;DHT22;51846;48.692;2.382;2022-09-30T03:35:58;8.02;89.06
65245;DHT22;51846;48.692;2.382;2022-09-30T03:38:33;8.00;89.02
65245;DHT22;51846;48.692;2.382;2022-09-30T03:48:46;7.86;88.60
65245;DHT22;51846;48.692;2.382;2022-09-30T03:51:12;7.82;89.08
65245;DHT22;51846;48.692;2.382;2022-09-30T03:53:40;7.82;89.12
65245;DHT22;51846;48.692;2.382;2022-09-30T03:56:06;7.76;88.93
65245;DHT22;51846;48.692;2.382;2022-09-30T03:58:31;7.78;89.18
65245;DHT22;51846;48.692;2.382;2022-09-30T04:00:58;7.74;88.87
65245;DHT22;51846;48.692;2.382;2022-09-30T04:03:23;7.59;88.81
65245;DHT22;51846;48.692;2.382;2022-09-30T04:05:51;7.52;90.07
65245;DHT22;51846;48.692;2.382;2022-09-30T04:08:17;7.47;91.07
65245;DHT22;51846;48.692;2.382;2022-09-30T04:10:42;7.32;91.49
65245;DHT22;51846;48.692;2.382;2022-09-30T04:13:08;7.30;91.68
65245;DHT22;51846;48.692;2.382;2022-09-30T04:15:33;7.44;91.74
65245;DHT22;51846;48.692;2.382;2022-09-30T04:17:59;7.56;91.41
65245;DHT22;51846;48.692;2.382;2022-09-30T04:20:24;7.65;91.13
65245;DHT22;51846;48.692;2.382;2022-09-30T04:22:49;7.61;90.68
65245;DHT22;51846;48.692;2.382;2022-09-30T04:25:15;7.65;90.52
65245;DHT22;51846;48.692;2.382;2022-09-30T04:27:40;7.69;90.35
65245;DHT22;51846;48.692;2.382;2022-09-30T04:30:05;7.72;90.16
65245;DHT22;51846;48.692;2.382;2022-09-30T04:32:31;7.75;90.14
65245;DHT22;51846;48.692;2.382;2022-09-30T04:34:56;7.78;89.68
65245;DHT22;51846;48.692;2.382;2022-09-30T04:37:21;7.76;89.32
65245;DHT22;51846;48.692;2.382;2022-09-30T04:39:47;7.78;89.24
65245;DHT22;51846;48.692;2.382;2022-09-30T04:42:12;7.78;89.36
65245;DHT22;51846;48.692;2.382;2022-09-30T04:44:38;7.75;89.46
65245;DHT22;51846;48.692;2.382;2022-09-30T04:47:03;7.71;89.35
65245;DHT22;51846;48.692;2.382;2022-09-30T04:49:28;7.72;90.04
65245;DHT22;51846;48.692;2.382;2022-09-30T04:51:54;7.61;89.73
65245;DHT22;51846;48.692;2.382;2022-09-30T04:54:19;7.68;90.15
65245;DHT22;51846;48.692;2.382;2022-09-30T04:56:44;7.64;90.03
65245;DHT22;51846;48.692;2.382;2022-09-30T04:59:09;7.69;90.50
65245;DHT22;51846;48.692;2.382;2022-09-30T05:01:35;7.55;89.90
65245;DHT22;51846;48.692;2.382;2022-09-30T05:04:00;7.52;90.44
65245;DHT22;51846;48.692;2.382;2022-09-30T05:06:25;7.42;91.03
65245;DHT22;51846;48.692;2.382;2022-09-30T05:08:51;7.32;91.28
65245;DHT22;51846;48.692;2.382;2022-09-30T05:11:17;7.20;91.65
65245;DHT22;51846;48.692;2.382;2022-09-30T05:13:43;7.31;91.65
65245;DHT22;51846;48.692;2.382;2022-09-30T05:16:08;7.40;91.16
65245;DHT22;51846;48.692;2.382;2022-09-30T05:18:34;7.48;91.20
65245;DHT22;51846;48.692;2.382;2022-09-30T05:21:00;7.58;91.13
65245;DHT22;51846;48.692;2.382;2022-09-30T05:23:26;7.65;91.47
65245;DHT22;51846;48.692;2.382;2022-09-30T05:25:51;7.68;91.20
65245;DHT22;51846;48.692;2.382;2022-09-30T05:28:17;7.71;90.78
65245;DHT22;51846;48.692;2.382;2022-09-30T05:30:42;7.74;90.26
65245;DHT22;51846;48.692;2.382;2022-09-30T05:33:08;7.78;90.11
65245;DHT22;51846;48.692;2.382;2022-09-30T05:35:34;7.81;89.78
65245;DHT22;51846;48.692;2.382;2022-09-30T05:37:59;7.79;89.75
65245;DHT22;51846;48.692;2.382;2022-09-30T05:40:25;7.81;89.39
65245;DHT22;51846;48.692;2.382;2022-09-30T05:42:50;7.81;89.51
65245;DHT22;51846;48.692;2.382;2022-09-30T05:45:16;7.82;89.38
65245;DHT22;51846;48.692;2.382;2022-09-30T05:47:41;7.76;89.22
65245;DHT22;51846;48.692;2.382;2022-09-30T05:50:06;7.78;89.26
65245;DHT22;51846;48.692;2.382;2022-09-30T05:52:32;7.76;89.30
65245;DHT22;51846;48.692;2.382;2022-09-30T05:54:57;7.74;89.35
65245;DHT22;51846;48.692;2.382;2022-09-30T05:57:26;7.76;89.14
65245;DHT22;51846;48.692;2.382;2022-09-30T05:59:51;7.74;89.28
65245;DHT22;51846;48.692;2.382;2022-09-30T06:02:16;7.75;89.10
65245;DHT22;51846;48.692;2.382;2022-09-30T06:04:42;7.76;89.34
65245;DHT22;51846;48.692;2.382;2022-09-30T06:07:07;7.76;89.13
65245;DHT22;51846;48.692;2.382;2022-09-30T06:09:32;7.78;89.20
65245;DHT22;51846;48.692;2.382;2022-09-30T06:11:57;7.76;89.22
65245;DHT22;51846;48.692;2.382;2022-09-30T06:14:24;7.78;89.17
65245;DHT22;51846;48.692;2.382;2022-09-30T06:16:49;7.72;89.10
65245;DHT22;51846;48.692;2.382;2022-09-30T06:19:14;7.72;89.08
65245;DHT22;51846;48.692;2.382;2022-09-30T06:21:40;7.71;88.92
65245;DHT22;51846;48.692;2.382;2022-09-30T06:24:05;7.68;89.25
65245;DHT22;51846;48.692;2.382;2022-09-30T06:26:32;7.72;89.24
65245;DHT22;51846;48.692;2.382;2022-09-30T06:28:58;7.74;89.18
65245;DHT22;51846;48.692;2.382;2022-09-30T06:31:23;7.74;89.29
65245;DHT22;51846;48.692;2.382;2022-09-30T06:33:50;7.78;89.45
65245;DHT22;51846;48.692;2.382;2022-09-30T06:36:16;7.79;89.40
65245;DHT22;51846;48.692;2.382;2022-09-30T06:38:41;7.78;89.49
65245;DHT22;51846;48.692;2.382;2022-09-30T06:41:07;7.79;89.48
65245;DHT22;51846;48.692;2.382;2022-09-30T06:43:32;7.81;89.58
65245;DHT22;51846;48.692;2.382;2022-09-30T06:45:57;7.83;89.62
65245;DHT22;51846;48.692;2.382;2022-09-30T06:48:23;7.83;89.97
65245;DHT22;51846;48.692;2.382;2022-09-30T06:50:48;7.87;89.94
65245;DHT22;51846;48.692;2.382;2022-09-30T06:53:13;7.86;89.95
65245;DHT22;51846;48.692;2.382;2022-09-30T06:55:39;7.93;90.25
65245;DHT22;51846;48.692;2.382;2022-09-30T06:58:05;7.96;90.34
65245;DHT22;51846;48.692;2.382;2022-09-30T07:00:32;7.97;90.55
65245;DHT22;51846;48.692;2.382;2022-09-30T07:02:57;7.97;90.49
65245;DHT22;51846;48.692;2.382;2022-09-30T07:05:23;7.90;90.57
65245;DHT22;51846;48.692;2.382;2022-09-30T07:07:51;7.89;90.35
65245;DHT22;51846;48.692;2.382;2022-09-30T07:10:16;7.92;90.38
65245;DHT22;51846;48.692;2.382;2022-09-30T07:12:42;7.87;90.50
65245;DHT22;51846;48.692;2.382;2022-09-30T07:15:07;7.92;90.77
65245;DHT22;51846;48.692;2.382;2022-09-30T07:17:32;8.12;90.70
65245;DHT22;51846;48.692;2.382;2022-09-30T07:19:58;8.17;90.69
65245;DHT22;51846;48.692;2.382;2022-09-30T07:22:23;8.23;90.45
65245;DHT22;51846;48.692;2.382;2022-09-30T07:24:55;8.19;90.60
65245;DHT22;51846;48.692;2.382;2022-09-30T07:27:21;8.29;90.86
65245;DHT22;51846;48.692;2.382;2022-09-30T07:29:47;8.33;91.00
65245;DHT22;51846;48.692;2.382;2022-09-30T07:32:12;8.37;91.08
65245;DHT22;51846;48.692;2.382;2022-09-30T07:34:38;8.50;90.76
65245;DHT22;51846;48.692;2.382;2022-09-30T07:37:11;8.53;90.44
65245;DHT22;51846;48.692;2.382;2022-09-30T07:39:37;8.60;90.29
65245;DHT22;51846;48.692;2.382;2022-09-30T07:42:02;8.68;89.29
65245;DHT22;51846;48.692;2.382;2022-09-30T07:44:28;8.74;89.95
65245;DHT22;51846;48.692;2.382;2022-09-30T07:46:53;8.82;89.33
65245;DHT22;51846;48.692;2.382;2022-09-30T07:49:19;8.87;89.20
65245;DHT22;51846;48.692;2.382;2022-09-30T07:51:55;9.04;89.71
65245;DHT22;51846;48.692;2.382;2022-09-30T07:54:22;9.18;89.67
65245;DHT22;51846;48.692;2.382;2022-09-30T07:56:48;9.22;89.38
65245;DHT22;51846;48.692;2.382;2022-09-30T07:59:14;9.22;87.54
65245;DHT22;51846;48.692;2.382;2022-09-30T08:01:39;9.22;88.58
65245;DHT22;51846;48.692;2.382;2022-09-30T08:04:06;9.26;87.84
65245;DHT22;51846;48.692;2.382;2022-09-30T08:06:35;9.32;87.76
65245;DHT22;51846;48.692;2.382;2022-09-30T08:09:00;9.48;87.98
65245;DHT22;51846;48.692;2.382;2022-09-30T08:11:25;9.62;87.09
65245;DHT22;51846;48.692;2.382;2022-09-30T08:13:51;9.67;86.89
65245;DHT22;51846;48.692;2.382;2022-09-30T08:16:17;9.83;87.06
65245;DHT22;51846;48.692;2.382;2022-09-30T08:18:43;9.89;87.28
65245;DHT22;51846;48.692;2.382;2022-09-30T08:21:08;9.97;87.45
65245;DHT22;51846;48.692;2.382;2022-09-30T08:23:33;10.09;85.49
65245;DHT22;51846;48.692;2.382;2022-09-30T08:26:06;10.25;85.68
65245;DHT22;51846;48.692;2.382;2022-09-30T08:28:31;10.34;85.66
65245;DHT22;51846;48.692;2.382;2022-09-30T08:31:11;10.51;85.25
65245;DHT22;51846;48.692;2.382;2022-09-30T08:33:36;10.58;85.54
65245;DHT22;51846;48.692;2.382;2022-09-30T08:36:06;10.67;85.22
65245;DHT22;51846;48.692;2.382;2022-09-30T08:38:32;10.86;84.29
65245;DHT22;51846;48.692;2.382;2022-09-30T08:41:02;11.04;83.82
65245;DHT22;51846;48.692;2.382;2022-09-30T08:48:50;11.26;83.24
65245;DHT22;51846;48.692;2.382;2022-09-30T08:51:32;11.36;82.79
65245;DHT22;51846;48.692;2.382;2022-09-30T08:53:58;11.33;82.23
65245;DHT22;51846;48.692;2.382;2022-09-30T08:56:27;11.44;82.40
65245;DHT22;51846;48.692;2.382;2022-09-30T09:01:43;11.62;81.70
65245;DHT22;51846;48.692;2.382;2022-09-30T09:04:10;11.70;82.54
65245;DHT22;51846;48.692;2.382;2022-09-30T09:09:32;11.89;82.80
65245;DHT22;51846;48.692;2.382;2022-09-30T09:14:47;12.17;80.96
65245;DHT22;51846;48.692;2.382;2022-09-30T09:19:52;12.34;81.61
65245;DHT22;51846;48.692;2.382;2022-09-30T09:22:18;12.42;80.80
65245;DHT22;51846;48.692;2.382;2022-09-30T09:24:45;12.61;81.83
65245;DHT22;51846;48.692;2.382;2022-09-30T09:27:23;12.66;81.03
65245;DHT22;51846;48.692;2.382;2022-09-30T09:32:17;12.91;78.97
65245;DHT22;51846;48.692;2.382;2022-09-30T09:34:43;12.98;79.33
65245;DHT22;51846;48.692;2.382;2022-09-30T09:37:19;13.09;77.76
65245;DHT22;51846;48.692;2.382;2022-09-30T09:40:02;13.36;77.01
65245;DHT22;51846;48.692;2.382;2022-09-30T09:47:50;13.71;74.15
65245;DHT22;51846;48.692;2.382;2022-09-30T09:50:17;13.85;73.88
65245;DHT22;51846;48.692;2.382;2022-09-30T09:53:10;14.08;73.44
65245;DHT22;51846;48.692;2.382;2022-09-30T09:55:38;14.39;72.65
65245;DHT22;51846;48.692;2.382;2022-09-30T09:58:04;14.61;69.53
65245;DHT22;51846;48.692;2.382;2022-09-30T10:00:29;14.88;69.44
65245;DHT22;51846;48.692;2.382;2022-09-30T10:05:46;15.42;66.74
65245;DHT22;51846;48.692;2.382;2022-09-30T10:08:22;15.54;68.08
65245;DHT22;51846;48.692;2.382;2022-09-30T10:10:51;15.51;66.99
65245;DHT22;51846;48.692;2.382;2022-09-30T10:15:49;15.85;66.36
65245;DHT22;51846;48.692;2.382;2022-09-30T10:18:18;15.97;63.13
65245;DHT22;51846;48.692;2.382;2022-09-30T10:20:53;16.21;62.85
65245;DHT22;51846;48.692;2.382;2022-09-30T10:26:02;16.35;62.79
65245;DHT22;51846;48.692;2.382;2022-09-30T10:28:31;16.58;61.76
65245;DHT22;51846;48.692;2.382;2022-09-30T10:31:06;16.69;60.30
65245;DHT22;51846;48.692;2.382;2022-09-30T10:33:34;16.87;60.98
65245;DHT22;51846;48.692;2.382;2022-09-30T10:36:05;16.89;61.25
65245;DHT22;51846;48.692;2.382;2022-09-30T10:38:31;16.97;60.94
65245;DHT22;51846;48.692;2.382;2022-09-30T10:40:59;17.02;60.67
65245;DHT22;51846;48.692;2.382;2022-09-30T10:45:53;17.07;58.15
65245;DHT22;51846;48.692;2.382;2022-09-30T10:48:20;17.06;58.25
65245;DHT22;51846;48.692;2.382;2022-09-30T10:50:50;17.14;59.69
65245;DHT22;51846;48.692;2.382;2022-09-30T10:53:23;17.28;59.44
65245;DHT22;51846;48.692;2.382;2022-09-30T10:55:49;17.45;57.49
65245;DHT22;51846;48.692;2.382;2022-09-30T10:58:27;17.55;57.58
65245;DHT22;51846;48.692;2.382;2022-09-30T11:01:37;17.61;56.97
65245;DHT22;51846;48.692;2.382;2022-09-30T11:06:16;17.50;55.63
65245;DHT22;51846;48.692;2.382;2022-09-30T11:08:50;17.48;57.19
65245;DHT22;51846;48.692;2.382;2022-09-30T11:11:23;17.67;58.15
65245;DHT22;51846;48.692;2.382;2022-09-30T11:16:28;17.91;55.40
65245;DHT22;51846;48.692;2.382;2022-09-30T11:21:39;17.94;55.66
65245;DHT22;51846;48.692;2.382;2022-09-30T11:37:03;18.12;48.99
65245;DHT22;51846;48.692;2.382;2022-09-30T11:39:40;18.04;49.67
65245;DHT22;51846;48.692;2.382;2022-09-30T11:42:13;18.32;52.40
65245;DHT22;51846;48.692;2.382;2022-09-30T11:44:42;18.18;49.46
65245;DHT22;51846;48.692;2.382;2022-09-30T11:47:18;18.40;51.15
65245;DHT22;51846;48.692;2.382;2022-09-30T12:00:19;18.45;51.29
65245;DHT22;51846;48.692;2.382;2022-09-30T12:02:55;18.66;53.02
65245;DHT22;51846;48.692;2.382;2022-09-30T12:10:17;18.66;52.06
65245;DHT22;51846;48.692;2.382;2022-09-30T12:12:45;18.53;50.09
65245;DHT22;51846;48.692;2.382;2022-09-30T12:15:15;18.13;51.64
65245;DHT22;51846;48.692;2.382;2022-09-30T12:17:56;18.18;53.11
65245;DHT22;51846;48.692;2.382;2022-09-30T12:20:28;17.98;50.63
65245;DHT22;51846;48.692;2.382;2022-09-30T12:25:43;17.95;50.47
65245;DHT22;51846;48.692;2.382;2022-09-30T12:36:41;17.89;52.19
65245;DHT22;51846;48.692;2.382;2022-09-30T12:41:54;17.70;51.19
65245;DHT22;51846;48.692;2.382;2022-09-30T12:44:40;17.33;51.36
65245;DHT22;51846;48.692;2.382;2022-09-30T12:49:55;17.34;52.90
65245;DHT22;51846;48.692;2.382;2022-09-30T12:52:24;17.57;53.59
65245;DHT22;51846;48.692;2.382;2022-09-30T12:54:51;17.65;51.71
65245;DHT22;51846;48.692;2.382;2022-09-30T12:57:25;17.73;51.02
65245;DHT22;51846;48.692;2.382;2022-09-30T12:59:52;17.70;50.92
65245;DHT22;51846;48.692;2.382;2022-09-30T13:02:35;17.73;51.84
65245;DHT22;51846;48.692;2.382;2022-09-30T13:15:55;17.84;50.57
65245;DHT22;51846;48.692;2.382;2022-09-30T13:28:48;17.70;53.10
65245;DHT22;51846;48.692;2.382;2022-09-30T13:31:14;17.65;52.81
65245;DHT22;51846;48.692;2.382;2022-09-30T13:34:29;17.51;53.22
65245;DHT22;51846;48.692;2.382;2022-09-30T13:36:29;17.57;53.23
65245;DHT22;51846;48.692;2.382;2022-09-30T13:41:40;17.43;51.21
65245;DHT22;51846;48.692;2.382;2022-09-30T13:44:07;17.45;52.83
65245;DHT22;51846;48.692;2.382;2022-09-30T13:49:24;17.58;52.16
65245;DHT22;51846;48.692;2.382;2022-09-30T13:51:48;17.65;53.59
65245;DHT22;51846;48.692;2.382;2022-09-30T13:56:52;17.48;51.43
65245;DHT22;51846;48.692;2.382;2022-09-30T13:59:19;17.38;51.82
65245;DHT22;51846;48.692;2.382;2022-09-30T14:01:53;17.51;52.35
65245;DHT22;51846;48.692;2.382;2022-09-30T14:09:59;17.60;51.87
65245;DHT22;51846;48.692;2.382;2022-09-30T14:12:37;17.64;51.69
65245;DHT22;51846;48.692;2.382;2022-09-30T14:18:02;17.51;51.29
65245;DHT22;51846;48.692;2.382;2022-09-30T14:22:58;17.51;52.47
65245;DHT22;51846;48.692;2.382;2022-09-30T14:25:23;17.48;52.75
65245;DHT22;51846;48.692;2.382;2022-09-30T14:27:54;17.51;53.29
65245;DHT22;51846;48.692;2.382;2022-09-30T14:30:22;17.58;52.82
65245;DHT22;51846;48.692;2.382;2022-09-30T14:32:58;17.57;52.57
65245;DHT22;51846;48.692;2.382;2022-09-30T14:35:26;17.41;51.97
65245;DHT22;51846;48.692;2.382;2022-09-30T14:40:57;17.43;52.56
65245;DHT22;51846;48.692;2.382;2022-09-30T14:43:23;17.38;53.00
65245;DHT22;51846;48.692;2.382;2022-09-30T14:45:53;17.50;53.10
65245;DHT22;51846;48.692;2.382;2022-09-30T14:48:23;17.53;52.72
65245;DHT22;51846;48.692;2.382;2022-09-30T14:50:54;17.63;52.92
65245;DHT22;51846;48.692;2.382;2022-09-30T14:53:30;17.61;53.44
65245;DHT22;51846;48.692;2.382;2022-09-30T14:55:56;17.58;53.08
65245;DHT22;51846;48.692;2.382;2022-09-30T14:58:23;17.68;53.24
65245;DHT22;51846;48.692;2.382;2022-09-30T15:03:20;17.79;52.20
65245;DHT22;51846;48.692;2.382;2022-09-30T15:05:46;17.68;52.83
65245;DHT22;51846;48.692;2.382;2022-09-30T15:08:20;17.64;51.95
65245;DHT22;51846;48.692;2.382;2022-09-30T15:10:47;17.63;52.39
65245;DHT22;51846;48.692;2.382;2022-09-30T15:13:13;17.53;53.11
65245;DHT22;51846;48.692;2.382;2022-09-30T15:15:39;17.50;53.56
65245;DHT22;51846;48.692;2.382;2022-09-30T15:18:23;17.51;53.51
65245;DHT22;51846;48.692;2.382;2022-09-30T15:20:50;17.40;52.58
65245;DHT22;51846;48.692;2.382;2022-09-30T15:23:18;17.41;52.31
65245;DHT22;51846;48.692;2.382;2022-09-30T15:25:44;17.34;52.43
65245;DHT22;51846;48.692;2.382;2022-09-30T15:28:10;17.27;52.13
65245;DHT22;51846;48.692;2.382;2022-09-30T15:30:36;17.13;52.27
65245;DHT22;51846;48.692;2.382;2022-09-30T15:33:02;17.09;52.77
65245;DHT22;51846;48.692;2.382;2022-09-30T15:35:28;17.07;52.51
65245;DHT22;51846;48.692;2.382;2022-09-30T15:38:03;17.06;51.18
65245;DHT22;51846;48.692;2.382;2022-09-30T15:40:29;17.00;52.31
65245;DHT22;51846;48.692;2.382;2022-09-30T15:43:10;17.12;52.14
65245;DHT22;51846;48.692;2.382;2022-09-30T15:45:40;17.02;53.15
65245;DHT22;51846;48.692;2.382;2022-09-30T15:50:50;16.92;53.16
65245;DHT22;51846;48.692;2.382;2022-09-30T15:56:16;16.82;53.69
65245;DHT22;51846;48.692;2.382;2022-09-30T15:58:55;16.82;54.01
65245;DHT22;51846;48.692;2.382;2022-09-30T16:01:22;16.84;54.87
65245;DHT22;51846;48.692;2.382;2022-09-30T16:03:55;16.80;54.58
65245;DHT22;51846;48.692;2.382;2022-09-30T16:06:23;16.80;55.13
65245;DHT22;51846;48.692;2.382;2022-09-30T16:08:51;16.79;54.65
65245;DHT22;51846;48.692;2.382;2022-09-30T16:11:25;16.84;55.32
65245;DHT22;51846;48.692;2.382;2022-09-30T16:13:51;16.82;54.65
65245;DHT22;51846;48.692;2.382;2022-09-30T16:16:19;16.79;55.60
65245;DHT22;51846;48.692;2.382;2022-09-30T16:18:45;16.76;55.65
65245;DHT22;51846;48.692;2.382;2022-09-30T16:21:25;16.69;55.42
65245;DHT22;51846;48.692;2.382;2022-09-30T16:23:51;16.66;56.09
65245;DHT22;51846;48.692;2.382;2022-09-30T16:26:28;16.68;56.16
65245;DHT22;51846;48.692;2.382;2022-09-30T16:28:54;16.62;56.32
65245;DHT22;51846;48.692;2.382;2022-09-30T16:31:27;16.59;57.08
65245;DHT22;51846;48.692;2.382;2022-09-30T16:33:53;16.53;56.24
65245;DHT22;51846;48.692;2.382;2022-09-30T16:36:19;16.63;57.34
65245;DHT22;51846;48.692;2.382;2022-09-30T16:38:44;16.52;56.39
65245;DHT22;51846;48.692;2.382;2022-09-30T16:41:12;16.53;56.84
65245;DHT22;51846;48.692;2.382;2022-09-30T16:43:38;16.55;57.53
65245;DHT22;51846;48.692;2.382;2022-09-30T16:46:03;16.56;57.34
65245;DHT22;51846;48.692;2.382;2022-09-30T16:48:28;16.49;56.91
65245;DHT22;51846;48.692;2.382;2022-09-30T16:51:04;16.41;58.07
65245;DHT22;51846;48.692;2.382;2022-09-30T16:53:31;16.47;58.81
65245;DHT22;51846;48.692;2.382;2022-09-30T16:55:56;16.47;58.74
65245;DHT22;51846;48.692;2.382;2022-09-30T16:58:21;16.39;57.78
65245;DHT22;51846;48.692;2.382;2022-09-30T17:00:47;16.35;58.11
65245;DHT22;51846;48.692;2.382;2022-09-30T17:03:13;16.30;58.57
65245;DHT22;51846;48.692;2.382;2022-09-30T17:05:39;16.21;58.17
65245;DHT22;51846;48.692;2.382;2022-09-30T17:08:10;16.14;58.27
65245;DHT22;51846;48.692;2.382;2022-09-30T17:10:37;16.14;59.08
65245;DHT22;51846;48.692;2.382;2022-09-30T17:13:02;16.18;59.25
65245;DHT22;51846;48.692;2.382;2022-09-30T17:15:29;16.08;58.63
65245;DHT22;51846;48.692;2.382;2022-09-30T17:17:54;16.11;59.27
65245;DHT22;51846;48.692;2.382;2022-09-30T17:20:20;16.02;58.92
65245;DHT22;51846;48.692;2.382;2022-09-30T17:22:46;15.98;59.09
65245;DHT22;51846;48.692;2.382;2022-09-30T17:25:11;15.88;59.33
65245;DHT22;51846;48.692;2.382;2022-09-30T17:27:36;15.91;60.03
65245;DHT22;51846;48.692;2.382;2022-09-30T17:30:02;15.84;59.62
65245;DHT22;51846;48.692;2.382;2022-09-30T17:32:28;15.77;60.31
65245;DHT22;51846;48.692;2.382;2022-09-30T17:34:53;15.74;60.06
65245;DHT22;51846;48.692;2.382;2022-09-30T17:37:18;15.71;60.35
65245;DHT22;51846;48.692;2.382;2022-09-30T17:39:44;15.65;60.71
65245;DHT22;51846;48.692;2.382;2022-09-30T17:42:12;15.68;60.49
65245;DHT22;51846;48.692;2.382;2022-09-30T17:44:56;15.61;60.73
65245;DHT22;51846;48.692;2.382;2022-09-30T17:47:21;15.60;61.26
65245;DHT22;51846;48.692;2.382;2022-09-30T17:49:47;15.57;61.32
65245;DHT22;51846;48.692;2.382;2022-09-30T17:52:12;15.60;61.36
65245;DHT22;51846;48.692;2.382;2022-09-30T17:54:39;15.64;61.99
65245;DHT22;51846;48.692;2.382;2022-09-30T17:57:05;15.55;61.73
65245;DHT22;51846;48.692;2.382;2022-09-30T17:59:31;15.51;61.72
65245;DHT22;51846;48.692;2.382;2022-09-30T18:01:56;15.55;61.87
65245;DHT22;51846;48.692;2.382;2022-09-30T18:04:21;15.54;61.45
65245;DHT22;51846;48.692;2.382;2022-09-30T18:06:48;15.57;61.71
65245;DHT22;51846;48.692;2.382;2022-09-30T18:09:14;15.49;61.51
65245;DHT22;51846;48.692;2.382;2022-09-30T18:11:39;15.49;61.94
65245;DHT22;51846;48.692;2.382;2022-09-30T18:14:04;15.44;62.38
65245;DHT22;51846;48.692;2.382;2022-09-30T18:16:30;15.43;62.37
65245;DHT22;51846;48.692;2.382;2022-09-30T18:18:58;15.40;61.97
65245;DHT22;51846;48.692;2.382;2022-09-30T18:21:23;15.40;61.96
65245;DHT22;51846;48.692;2.382;2022-09-30T18:23:49;15.30;61.86
65245;DHT22;51846;48.692;2.382;2022-09-30T18:26:15;15.29;62.08
65245;DHT22;51846;48.692;2.382;2022-09-30T18:28:40;15.34;62.14
65245;DHT22;51846;48.692;2.382;2022-09-30T18:31:07;15.37;62.35
65245;DHT22;51846;48.692;2.382;2022-09-30T18:33:33;15.30;61.82
65245;DHT22;51846;48.692;2.382;2022-09-30T18:35:59;15.23;62.44
65245;DHT22;51846;48.692;2.382;2022-09-30T18:38:24;15.20;62.08
65245;DHT22;51846;48.692;2.382;2022-09-30T18:40:51;15.20;62.61
65245;DHT22;51846;48.692;2.382;2022-09-30T18:43:18;15.18;62.01
65245;DHT22;51846;48.692;2.382;2022-09-30T18:45:50;15.20;62.78
65245;DHT22;51846;48.692;2.382;2022-09-30T18:48:16;15.14;62.29
65245;DHT22;51846;48.692;2.382;2022-09-30T18:50:41;15.12;62.11